Terminal Aerodrome Forecast
Issued by NWS Cleveland, OH

Home | Current Version | Previous Version | Graphics & Text | Print | Product List | Glossary On
Versions: 1 2 3 4 5 6 7 8 9 10 11 12 13 14 15 16 17 18 19 20 21 22 23 24 25 26 27 28 29
000
FTUS41 KCLE 231700
TAFCLE
TAF
KCLE 231729Z 2318/2424 35012KT 5SM -DZ BR BKN009 OVC012
      TEMPO 2318/2321 2SM -DZ BR BKN005
     FM232100 35012KT 6SM BR OVC012
      TEMPO 2321/2323 4SM -DZ BR BKN009
     FM240000 36009KT P6SM BKN030
     FM241900 01012KT P6SM SCT040=

USA.gov is the U.S. government's official web portal to all federal, state and local government web resources and services.